Time;durP1;ratioP1;P1;durP2;ratioP2;P2;SDS_P1;SDS_P2;PMS_P1;PMS_P2;Temp;Humidity;BMP_temperature;BMP_pressure;BME280_temperature;BME280_humidity;BME280_pressure;Samples;Min_cycle;Max_cycle;Signal;HPM_P1;HPM_P2
2023/08/22 00:00:32;;;;;;;254.25;241.85;;;28.00;99.90;;;;;;5014008;28;20052;-78
2023/08/22 00:02:58;;;;;;;220.55;209.82;;;27.90;99.90;;;;;;5015610;28;20037;-78
2023/08/22 00:05:24;;;;;;;197.70;187.77;;;27.80;99.90;;;;;;5015486;28;20459;-78
2023/08/22 00:07:50;;;;;;;181.65;172.75;;;27.80;99.90;;;;;;5015694;28;20505;-79
2023/08/22 00:10:17;;;;;;;185.25;175.90;;;27.80;99.90;;;;;;5015426;28;20026;-79
2023/08/22 00:12:43;;;;;;;197.43;187.75;;;27.80;99.90;;;;;;5015349;28;20029;-79
2023/08/22 00:15:10;;;;;;;166.27;158.10;;;27.80;99.90;;;;;;5013865;28;20046;-78
2023/08/22 00:17:36;;;;;;;182.70;173.90;;;27.70;99.90;;;;;;5015878;28;20038;-78
2023/08/22 00:20:04;;;;;;;201.75;191.82;;;27.70;99.90;;;;;;5015656;28;20044;-78
2023/08/22 00:22:31;;;;;;;190.07;180.77;;;27.70;99.90;;;;;;5015402;28;20049;-78
2023/08/22 00:24:57;;;;;;;202.20;192.18;;;27.80;99.90;;;;;;5015499;28;20364;-78
2023/08/22 00:27:23;;;;;;;243.25;231.20;;;27.70;99.90;;;;;;5014993;28;20033;-78
2023/08/22 00:29:49;;;;;;;201.20;191.38;;;27.70;99.90;;;;;;5015217;28;20026;-78
2023/08/22 00:32:15;;;;;;;205.98;196.02;;;27.70;99.90;;;;;;5014485;28;20041;-79
2023/08/22 00:34:41;;;;;;;206.45;196.40;;;27.70;99.90;;;;;;5015231;28;20026;-79
2023/08/22 00:37:07;;;;;;;248.30;235.90;;;27.70;99.90;;;;;;5015107;28;20033;-79
2023/08/22 00:39:33;;;;;;;248.25;236.05;;;27.70;99.90;;;;;;5014656;28;20034;-79
2023/08/22 00:41:59;;;;;;;242.23;230.07;;;27.80;99.90;;;;;;5014185;28;20041;-79
2023/08/22 00:44:25;;;;;;;234.02;222.40;;;27.80;99.90;;;;;;5015074;28;20380;-79
2023/08/22 00:46:52;;;;;;;216.70;206.18;;;27.70;99.90;;;;;;5014237;28;20038;-79
2023/08/22 00:49:18;;;;;;;179.88;170.68;;;27.50;99.90;;;;;;5015132;28;20037;-78
2023/08/22 00:51:44;;;;;;;195.25;185.68;;;27.50;99.90;;;;;;5013275;28;20038;-79
2023/08/22 00:54:10;;;;;;;194.50;184.95;;;27.50;99.90;;;;;;5013587;28;20021;-79
2023/08/22 00:56:36;;;;;;;193.00;183.32;;;27.40;99.90;;;;;;5014477;28;20030;-79
2023/08/22 00:59:03;;;;;;;197.02;187.40;;;27.50;99.90;;;;;;5014697;28;20026;-79
2023/08/22 01:01:29;;;;;;;188.50;179.30;;;27.40;99.90;;;;;;5013996;28;20054;-78
2023/08/22 01:03:56;;;;;;;185.52;176.05;;;27.50;99.90;;;;;;5013236;28;20042;-79
2023/08/22 01:06:51;;;;;;;172.50;163.90;;;27.40;99.90;;;;;;5014218;28;20026;-78
2023/08/22 01:09:40;;;;;;;176.68;167.85;;;27.30;99.90;;;;;;4976704;28;20500;-79
2023/08/22 01:12:32;;;;;;;157.88;149.93;;;27.20;99.90;;;;;;4991282;28;20049;-79
2023/08/22 01:15:18;;;;;;;157.93;149.93;;;27.30;99.90;;;;;;4992794;28;20042;-79
2023/08/22 01:17:44;;;;;;;172.85;164.38;;;27.30;99.90;;;;;;4991742;28;20042;-79
2023/08/22 01:20:12;;;;;;;175.30;166.70;;;27.20;99.90;;;;;;4992140;28;20054;-78
2023/08/22 01:22:39;;;;;;;181.73;172.63;;;27.30;99.90;;;;;;4975871;28;20492;-79
2023/08/22 01:25:06;;;;;;;181.20;172.20;;;27.20;99.90;;;;;;4991304;28;20053;-79
2023/08/22 01:27:46;;;;;;;175.10;166.40;;;27.20;99.90;;;;;;4992267;28;20068;-78
2023/08/22 01:30:16;;;;;;;167.90;159.40;;;27.00;99.90;;;;;;4975595;28;20026;-78
2023/08/22 01:32:44;;;;;;;160.80;152.70;;;27.00;99.90;;;;;;4992280;28;20043;-78
2023/08/22 01:35:10;;;;;;;166.38;158.07;;;26.90;99.90;;;;;;4976198;28;20380;-79
2023/08/22 01:37:36;;;;;;;166.65;158.32;;;26.90;99.90;;;;;;4976216;28;20046;-78
2023/08/22 01:40:04;;;;;;;172.77;164.27;;;26.70;99.90;;;;;;4975867;28;20038;-78
2023/08/22 01:42:30;;;;;;;194.63;184.85;;;26.70;99.90;;;;;;4972412;28;20050;-78
2023/08/22 01:44:56;;;;;;;172.60;163.77;;;26.70;99.90;;;;;;4956769;28;20035;-78
2023/08/22 01:47:22;;;;;;;184.35;175.32;;;26.70;99.90;;;;;;5010468;28;20399;-78
2023/08/22 01:49:49;;;;;;;178.38;169.63;;;26.70;99.90;;;;;;5013880;28;20051;-77
2023/08/22 01:52:15;;;;;;;181.98;173.15;;;26.70;99.90;;;;;;5013367;28;20050;-79
2023/08/22 01:54:41;;;;;;;175.48;166.85;;;26.70;99.90;;;;;;5013320;28;20037;-78
2023/08/22 01:57:07;;;;;;;178.88;170.18;;;26.60;99.90;;;;;;5013182;28;20037;-78
2023/08/22 01:59:33;;;;;;;176.65;167.98;;;26.70;99.90;;;;;;5010332;28;20018;-79
2023/08/22 02:01:59;;;;;;;166.82;158.43;;;26.70;99.90;;;;;;5006192;28;20048;-77
2023/08/22 02:04:25;;;;;;;163.18;154.93;;;26.70;99.90;;;;;;5012084;28;20018;-78
2023/08/22 02:06:51;;;;;;;182.32;173.05;;;26.60;99.90;;;;;;5011879;28;20041;-78
2023/08/22 02:09:18;;;;;;;180.68;171.65;;;26.60;99.90;;;;;;5012086;28;20455;-79
2023/08/22 02:11:44;;;;;;;168.98;160.52;;;26.60;99.90;;;;;;5012126;28;20049;-79
2023/08/22 02:14:10;;;;;;;167.90;159.57;;;26.50;99.90;;;;;;5011078;28;20049;-78
2023/08/22 02:16:36;;;;;;;154.68;146.93;;;26.50;99.90;;;;;;5024274;28;20042;-79
2023/08/22 02:19:02;;;;;;;201.88;191.60;;;26.30;99.90;;;;;;5031869;28;20017;-78
2023/08/22 02:21:29;;;;;;;189.02;179.70;;;26.20;99.90;;;;;;5031569;28;20410;-78
2023/08/22 02:23:55;;;;;;;180.20;171.40;;;26.10;99.90;;;;;;5031460;28;20052;-79
2023/08/22 02:26:21;;;;;;;178.25;169.40;;;26.10;99.90;;;;;;5031211;28;20041;-78
2023/08/22 02:28:47;;;;;;;163.30;155.30;;;26.00;99.90;;;;;;5031640;28;20455;-79
2023/08/22 02:31:14;;;;;;;182.25;173.27;;;25.90;99.90;;;;;;5030795;28;20048;-78
2023/08/22 02:33:40;;;;;;;163.60;155.60;;;25.90;99.90;;;;;;5031947;28;20048;-78
2023/08/22 02:36:06;;;;;;;157.27;149.40;;;25.80;99.90;;;;;;5031281;28;20033;-79
2023/08/22 02:38:32;;;;;;;163.32;154.95;;;25.70;99.90;;;;;;5032610;28;20030;-78
2023/08/22 02:40:59;;;;;;;194.32;184.63;;;25.80;99.90;;;;;;5032244;28;20394;-79
2023/08/22 02:43:25;;;;;;;175.45;166.68;;;25.90;99.90;;;;;;5032651;28;20049;-78
2023/08/22 02:45:51;;;;;;;164.55;156.40;;;25.80;99.90;;;;;;5032040;28;20030;-78
2023/08/22 02:48:17;;;;;;;189.45;180.10;;;25.60;99.90;;;;;;5032672;28;20033;-78
2023/08/22 02:50:43;;;;;;;168.93;160.30;;;25.50;99.90;;;;;;5032250;28;20025;-79
2023/08/22 02:53:14;;;;;;;172.38;163.93;;;25.50;99.90;;;;;;5032104;28;20046;-78
2023/08/22 02:55:40;;;;;;;180.27;171.57;;;25.40;99.90;;;;;;5032235;28;20037;-78
2023/08/22 02:58:06;;;;;;;165.50;157.32;;;25.50;99.90;;;;;;5032525;28;20029;-78
2023/08/22 03:00:34;;;;;;;230.35;218.85;;;25.60;99.90;;;;;;5031638;28;20034;-78
2023/08/22 03:03:00;;;;;;;203.43;193.52;;;25.60;99.90;;;;;;5031858;28;20404;-78
2023/08/22 03:05:27;;;;;;;144.45;137.27;;;25.50;99.90;;;;;;5032190;28;20021;-77
2023/08/22 03:07:53;;;;;;;155.75;148.02;;;25.60;99.90;;;;;;5032111;28;20029;-79
2023/08/22 03:10:19;;;;;;;167.77;159.43;;;25.50;99.90;;;;;;5031980;28;20034;-78
2023/08/22 03:12:47;;;;;;;193.52;183.60;;;25.40;99.90;;;;;;5032304;28;20037;-79
2023/08/22 03:15:13;;;;;;;192.50;182.82;;;25.40;99.90;;;;;;5030336;28;20052;-78
2023/08/22 03:17:39;;;;;;;198.00;188.00;;;25.40;99.90;;;;;;5032336;28;20025;-79
2023/08/22 03:20:06;;;;;;;241.80;229.85;;;25.40;99.90;;;;;;5032375;28;20026;-78
2023/08/22 03:22:32;;;;;;;259.10;245.55;;;25.20;99.90;;;;;;5031047;28;20053;-78
2023/08/22 03:24:58;;;;;;;274.20;259.83;;;25.20;99.90;;;;;;5032204;28;20363;-79
2023/08/22 03:27:24;;;;;;;247.98;235.30;;;25.20;99.90;;;;;;5031828;28;20045;-78
2023/08/22 03:29:50;;;;;;;267.70;254.18;;;25.30;99.90;;;;;;5032148;28;20025;-78
2023/08/22 03:32:16;;;;;;;270.42;256.38;;;25.40;99.90;;;;;;5031265;28;20033;-78
2023/08/22 03:34:42;;;;;;;276.33;261.55;;;25.40;99.90;;;;;;5032025;28;20037;-78
2023/08/22 03:37:08;;;;;;;247.68;234.57;;;25.20;99.90;;;;;;5031663;28;20037;-79
2023/08/22 03:39:34;;;;;;;236.95;224.50;;;25.20;99.90;;;;;;5032243;28;20029;-79
2023/08/22 03:42:01;;;;;;;229.63;217.68;;;25.30;99.90;;;;;;5032018;28;20406;-78
2023/08/22 03:44:27;;;;;;;226.73;214.80;;;25.30;99.90;;;;;;5031979;28;20029;-79
2023/08/22 03:46:53;;;;;;;174.75;165.90;;;25.40;99.90;;;;;;5031128;28;20045;-79
2023/08/22 03:49:19;;;;;;;170.60;162.20;;;25.30;99.90;;;;;;5032106;28;20414;-77
2023/08/22 03:51:45;;;;;;;171.40;162.85;;;25.40;99.90;;;;;;5031104;28;20049;-79
2023/08/22 03:54:11;;;;;;;156.75;149.02;;;25.30;99.90;;;;;;5032142;28;20041;-78
2023/08/22 03:56:37;;;;;;;157.27;149.32;;;25.30;99.90;;;;;;5031683;28;20033;-78
2023/08/22 03:59:03;;;;;;;163.25;155.15;;;25.30;99.90;;;;;;5032004;28;20041;-78
2023/08/22 04:01:29;;;;;;;160.88;152.93;;;25.30;99.90;;;;;;5031037;28;20410;-78
2023/08/22 04:03:55;;;;;;;170.02;161.48;;;25.30;99.90;;;;;;5031917;28;20034;-78
2023/08/22 04:06:22;;;;;;;175.75;166.90;;;25.30;99.90;;;;;;5031119;28;20048;-78
2023/08/22 04:08:48;;;;;;;172.27;163.70;;;25.30;99.90;;;;;;5030609;28;20037;-79
2023/08/22 04:11:14;;;;;;;180.00;171.05;;;25.40;99.90;;;;;;5031540;28;20033;-80
2023/08/22 04:13:40;;;;;;;170.32;161.55;;;25.40;99.90;;;;;;5031728;28;20048;-79
2023/08/22 04:16:06;;;;;;;192.90;183.35;;;25.20;99.90;;;;;;5033360;28;20044;-78
2023/08/22 04:18:32;;;;;;;189.77;180.38;;;25.30;99.90;;;;;;5035466;28;20037;-78
2023/08/22 04:20:58;;;;;;;186.20;176.82;;;25.40;99.90;;;;;;5034671;28;20028;-79
2023/08/22 04:23:24;;;;;;;166.75;158.50;;;25.40;99.90;;;;;;5035211;28;20034;-78
2023/08/22 04:25:51;;;;;;;161.77;153.45;;;25.40;99.90;;;;;;5035476;28;20464;-79
2023/08/22 04:28:17;;;;;;;171.73;163.23;;;25.40;99.90;;;;;;5035137;28;20037;-78
2023/08/22 04:30:43;;;;;;;190.73;181.30;;;25.40;99.90;;;;;;5034395;28;21109;-78
2023/08/22 04:33:09;;;;;;;179.32;170.35;;;25.50;99.90;;;;;;5035306;28;20046;-79
2023/08/22 04:35:37;;;;;;;172.10;163.57;;;25.50;99.90;;;;;;5034386;28;20382;-79
2023/08/22 04:38:04;;;;;;;173.00;164.23;;;25.30;99.90;;;;;;5034624;28;20037;-79
2023/08/22 04:40:30;;;;;;;173.52;164.80;;;25.20;99.90;;;;;;5034790;28;20044;-79
2023/08/22 04:42:56;;;;;;;158.50;150.38;;;25.10;99.90;;;;;;5034929;28;20041;-79
2023/08/22 04:45:22;;;;;;;150.48;143.07;;;25.20;99.90;;;;;;5034216;28;20037;-78
2023/08/22 04:47:48;;;;;;;138.52;131.73;;;25.30;99.90;;;;;;5034564;28;20032;-79
2023/08/22 04:50:14;;;;;;;162.25;154.05;;;25.30;99.90;;;;;;5034699;28;20377;-78
2023/08/22 04:52:40;;;;;;;146.65;139.40;;;25.30;99.90;;;;;;5034428;28;20049;-78
2023/08/22 04:55:07;;;;;;;182.77;173.57;;;25.30;99.90;;;;;;5034706;28;20037;-79
2023/08/22 04:57:33;;;;;;;154.20;146.50;;;25.30;99.90;;;;;;5034201;28;20033;-79
2023/08/22 04:59:59;;;;;;;162.82;154.45;;;25.20;99.90;;;;;;5034684;28;20038;-77
2023/08/22 05:02:26;;;;;;;189.65;180.27;;;25.20;99.90;;;;;;5033174;28;20050;-78
2023/08/22 05:04:52;;;;;;;187.95;178.38;;;25.20;99.90;;;;;;5034280;28;20040;-79
2023/08/22 05:07:18;;;;;;;147.65;140.38;;;25.10;99.90;;;;;;5034366;28;20040;-79
2023/08/22 05:09:44;;;;;;;150.35;143.10;;;25.10;99.90;;;;;;5034444;28;20029;-79
2023/08/22 05:12:10;;;;;;;230.02;218.43;;;25.10;99.90;;;;;;5034016;28;20390;-79
2023/08/22 05:14:36;;;;;;;185.32;176.13;;;25.10;99.90;;;;;;5034413;28;20032;-78
2023/08/22 05:17:03;;;;;;;208.50;197.85;;;25.00;99.90;;;;;;5033229;28;20355;-78
2023/08/22 05:19:29;;;;;;;214.55;203.70;;;24.80;99.90;;;;;;5034557;28;20056;-79
2023/08/22 05:21:55;;;;;;;201.68;191.80;;;24.60;99.90;;;;;;5033771;28;20371;-78
2023/08/22 05:24:21;;;;;;;176.95;168.02;;;24.60;99.90;;;;;;5033978;28;20025;-77
2023/08/22 05:26:47;;;;;;;201.90;191.85;;;24.50;99.90;;;;;;5033322;28;20030;-79
2023/08/22 05:29:14;;;;;;;261.15;247.90;;;24.30;99.90;;;;;;5034040;28;20026;-79
2023/08/22 05:31:40;;;;;;;195.30;185.70;;;24.40;99.90;;;;;;5032806;28;20041;-78
2023/08/22 05:34:06;;;;;;;217.65;206.80;;;24.60;99.90;;;;;;5033906;28;20383;-79
2023/08/22 05:36:32;;;;;;;198.43;188.38;;;24.60;99.90;;;;;;5033465;28;20036;-79
2023/08/22 05:38:58;;;;;;;205.55;195.30;;;24.50;99.90;;;;;;5033778;28;20033;-79
2023/08/22 05:41:25;;;;;;;169.57;161.32;;;24.50;99.90;;;;;;5033834;28;20408;-79
2023/08/22 05:43:51;;;;;;;162.50;154.70;;;24.60;99.90;;;;;;5033745;28;20029;-79
2023/08/22 05:46:17;;;;;;;148.88;141.63;;;24.40;99.90;;;;;;5031516;28;20041;-79
2023/08/22 05:48:43;;;;;;;140.32;133.45;;;24.50;99.90;;;;;;5033717;28;20037;-79
2023/08/22 05:51:09;;;;;;;139.88;132.98;;;24.50;99.90;;;;;;5033402;28;20404;-79
2023/08/22 05:53:35;;;;;;;143.70;136.27;;;24.60;99.90;;;;;;5033797;28;20498;-79
2023/08/22 05:56:01;;;;;;;136.43;129.50;;;24.60;99.90;;;;;;5033292;28;20037;-79
2023/08/22 05:58:27;;;;;;;147.50;139.98;;;24.60;99.90;;;;;;5033440;28;20048;-79
2023/08/22 06:00:53;;;;;;;143.38;136.07;;;24.30;99.90;;;;;;5032575;28;20025;-78
2023/08/22 06:03:20;;;;;;;144.32;137.10;;;24.30;99.90;;;;;;5033266;28;20057;-78
2023/08/22 06:05:46;;;;;;;160.02;151.80;;;24.40;99.90;;;;;;5033244;28;20038;-79
2023/08/22 06:08:12;;;;;;;148.88;141.40;;;24.60;99.90;;;;;;5033285;28;20060;-79
2023/08/22 06:10:38;;;;;;;127.32;120.82;;;24.70;99.90;;;;;;5032893;28;20410;-79
2023/08/22 06:13:04;;;;;;;123.45;117.20;;;24.60;99.90;;;;;;5033690;28;20490;-79
2023/08/22 06:15:30;;;;;;;129.60;123.10;;;24.50;99.90;;;;;;5032256;28;20037;-78
2023/08/22 06:17:57;;;;;;;141.95;134.75;;;24.50;99.90;;;;;;5033376;28;20409;-79
2023/08/22 06:20:23;;;;;;;138.93;132.02;;;24.60;99.90;;;;;;5032707;28;20034;-79
2023/08/22 06:22:49;;;;;;;139.18;132.27;;;24.70;99.90;;;;;;5032510;28;20056;-79
2023/08/22 06:25:15;;;;;;;134.45;127.85;;;24.80;99.90;;;;;;5031594;28;20036;-79
2023/08/22 06:27:42;;;;;;;139.25;132.20;;;24.90;99.90;;;;;;5032838;28;20040;-79
2023/08/22 06:30:08;;;;;;;134.57;127.78;;;24.90;99.90;;;;;;5032317;28;20368;-78
2023/08/22 06:32:34;;;;;;;144.50;137.25;;;24.90;99.90;;;;;;5032522;28;20034;-79
2023/08/22 06:35:00;;;;;;;156.18;148.30;;;25.00;99.90;;;;;;5032843;28;20030;-79
2023/08/22 06:37:27;;;;;;;159.85;151.88;;;25.00;99.90;;;;;;5032137;28;20030;-79
2023/08/22 06:39:53;;;;;;;152.10;144.40;;;25.00;99.90;;;;;;5032553;28;20029;-79
2023/08/22 06:42:19;;;;;;;150.02;142.15;;;25.10;99.90;;;;;;5032802;28;20054;-79
2023/08/22 06:44:45;;;;;;;148.75;141.50;;;25.30;99.90;;;;;;5032376;28;20386;-79
2023/08/22 06:47:11;;;;;;;151.07;143.40;;;25.30;99.90;;;;;;5032001;28;20041;-79
2023/08/22 06:49:37;;;;;;;128.57;122.15;;;25.50;99.90;;;;;;5032497;28;20036;-79
2023/08/22 06:52:03;;;;;;;119.05;113.18;;;25.70;99.90;;;;;;5032149;28;20380;-79
2023/08/22 06:54:32;;;;;;;127.47;120.93;;;25.80;99.90;;;;;;5032568;28;20501;-79
2023/08/22 06:56:58;;;;;;;125.35;118.97;;;25.80;99.90;;;;;;5032049;28;20045;-79
2023/08/22 06:59:24;;;;;;;125.25;118.35;;;26.00;99.90;;;;;;5031926;28;20033;-79
2023/08/22 07:01:51;;;;;;;123.85;117.75;;;26.20;99.90;;;;;;5031478;28;20045;-79
2023/08/22 07:04:17;;;;;;;122.18;116.22;;;26.40;99.90;;;;;;5032438;28;20113;-79
2023/08/22 07:06:43;;;;;;;123.55;117.25;;;26.60;99.90;;;;;;5032188;28;20416;-79
2023/08/22 07:09:09;;;;;;;151.02;143.32;;;26.70;99.90;;;;;;5032497;28;20032;-80
2023/08/22 07:11:36;;;;;;;161.45;153.52;;;26.80;99.90;;;;;;5032150;28;20029;-80
2023/08/22 07:14:03;;;;;;;135.73;128.93;;;26.80;99.90;;;;;;5032138;28;20439;-79
2023/08/22 07:16:29;;;;;;;152.93;145.35;;;26.80;99.90;;;;;;5031632;28;20049;-79
2023/08/22 07:18:55;;;;;;;153.38;145.77;;;26.90;99.90;;;;;;5032312;28;20056;-78
2023/08/22 07:21:21;;;;;;;172.85;164.15;;;26.90;99.90;;;;;;5032045;28;20026;-79
2023/08/22 07:23:47;;;;;;;155.50;147.80;;;26.90;99.90;;;;;;5032129;28;20052;-82
2023/08/22 07:26:13;;;;;;;143.55;136.30;;;27.00;99.90;;;;;;5031915;28;20030;-79
2023/08/22 07:28:39;;;;;;;144.10;137.00;;;27.10;99.90;;;;;;5032075;28;20036;-79
2023/08/22 07:31:06;;;;;;;147.05;139.63;;;27.20;99.90;;;;;;5031378;28;20040;-79
2023/08/22 07:33:32;;;;;;;140.65;133.57;;;27.20;99.90;;;;;;5032004;28;20057;-79
2023/08/22 07:35:59;;;;;;;150.00;142.60;;;27.10;99.90;;;;;;5031880;28;20033;-79
2023/08/22 07:38:25;;;;;;;186.05;177.05;;;27.20;99.90;;;;;;5032011;28;20462;-79
2023/08/22 07:40:51;;;;;;;151.63;144.25;;;27.10;99.90;;;;;;5031807;28;20056;-79
2023/08/22 07:43:18;;;;;;;148.93;141.82;;;27.20;99.90;;;;;;5031565;28;20034;-79
2023/08/22 07:45:44;;;;;;;155.63;147.77;;;27.00;99.90;;;;;;5031314;28;20026;-79
2023/08/22 07:48:10;;;;;;;149.90;142.48;;;27.20;99.90;;;;;;5031557;28;20032;-79
2023/08/22 07:50:36;;;;;;;164.95;156.73;;;27.20;99.90;;;;;;5034902;28;20033;-79
2023/08/22 07:53:04;;;;;;;134.60;128.02;;;27.40;99.90;;;;;;5035688;28;20045;-80
2023/08/22 07:55:31;;;;;;;142.55;135.50;;;27.30;99.90;;;;;;5035443;28;20036;-79
2023/08/22 07:57:57;;;;;;;147.65;140.15;;;27.20;99.90;;;;;;5035756;28;20037;-80
2023/08/22 08:00:23;;;;;;;154.90;147.20;;;27.10;99.90;;;;;;5034994;28;20052;-78
2023/08/22 08:02:49;;;;;;;146.55;139.27;;;27.00;99.90;;;;;;5036039;28;20056;-79
2023/08/22 08:05:15;;;;;;;137.35;130.32;;;27.10;99.90;;;;;;5035489;28;20026;-79
2023/08/22 08:07:41;;;;;;;143.80;136.82;;;27.40;99.90;;;;;;5035561;28;20025;-79
2023/08/22 08:10:08;;;;;;;146.15;139.02;;;27.50;99.90;;;;;;5035654;28;20455;-79
2023/08/22 08:12:34;;;;;;;158.95;151.07;;;27.60;99.90;;;;;;5033612;28;20386;-81
2023/08/22 08:15:00;;;;;;;143.95;136.63;;;27.70;99.90;;;;;;5034270;28;20032;-79
2023/08/22 08:17:26;;;;;;;152.35;144.90;;;27.60;99.90;;;;;;5034787;28;20049;-79
2023/08/22 08:19:52;;;;;;;201.95;192.25;;;27.70;99.90;;;;;;5035413;28;20025;-79
2023/08/22 08:22:18;;;;;;;191.13;181.55;;;27.80;99.90;;;;;;5034884;28;20044;-79
2023/08/22 08:24:44;;;;;;;159.10;151.15;;;28.20;99.90;;;;;;5035174;28;20021;-79
2023/08/22 08:27:10;;;;;;;178.45;169.82;;;28.30;99.90;;;;;;5034576;28;20041;-79
2023/08/22 08:29:37;;;;;;;181.25;172.05;;;28.40;99.90;;;;;;5035303;28;20387;-79
2023/08/22 08:32:03;;;;;;;191.30;181.80;;;28.70;99.90;;;;;;5034320;28;20053;-77
2023/08/22 08:34:29;;;;;;;245.98;234.30;;;28.90;99.90;;;;;;5035276;28;20033;-79
2023/08/22 08:36:56;;;;;;;181.23;172.45;;;28.60;99.90;;;;;;5034764;28;20037;-79
2023/08/22 08:39:22;;;;;;;161.80;153.85;;;28.60;99.60;;;;;;5035180;28;20033;-79
2023/08/22 08:42:08;;;;;;;166.13;158.02;;;28.70;99.70;;;;;;5034310;28;20044;-80
2023/08/22 08:44:37;;;;;;;169.32;161.13;;;28.90;99.60;;;;;;5034777;28;20490;-81
2023/08/22 08:47:03;;;;;;;181.18;172.05;;;28.70;99.50;;;;;;5034158;28;20037;-80
2023/08/22 08:49:33;;;;;;;173.50;164.90;;;28.80;99.80;;;;;;5034586;28;20040;-79
2023/08/22 08:52:07;;;;;;;231.18;220.05;;;28.90;99.70;;;;;;5033153;28;20048;-80
2023/08/22 08:54:33;;;;;;;201.18;191.60;;;29.00;99.90;;;;;;5034472;28;20084;-80
2023/08/22 08:56:59;;;;;;;156.57;148.65;;;29.20;99.90;;;;;;5034468;28;20037;-79
2023/08/22 08:59:26;;;;;;;180.40;171.52;;;29.20;99.30;;;;;;5034778;28;20038;-79
2023/08/22 09:01:52;;;;;;;166.65;158.35;;;29.10;99.60;;;;;;5033045;28;20395;-80
2023/08/22 09:04:18;;;;;;;172.32;163.95;;;29.20;99.90;;;;;;5034242;28;20037;-80
2023/08/22 09:06:46;;;;;;;177.50;168.68;;;29.30;99.40;;;;;;5034287;28;20029;-79
2023/08/22 09:09:12;;;;;;;173.55;165.00;;;29.60;99.20;;;;;;5034453;28;20048;-79
2023/08/22 09:11:49;;;;;;;168.40;160.10;;;29.50;98.80;;;;;;5034007;28;20510;-80
2023/08/22 09:14:19;;;;;;;197.43;187.95;;;29.40;99.00;;;;;;5034729;28;20064;-79
2023/08/22 09:16:47;;;;;;;195.02;185.48;;;29.60;99.40;;;;;;5033497;28;20033;-79
2023/08/22 09:19:13;;;;;;;227.40;216.35;;;29.90;99.70;;;;;;5034647;28;20041;-80
2023/08/22 09:21:39;;;;;;;277.52;264.02;;;30.20;99.00;;;;;;5033814;28;20037;-80
2023/08/22 09:24:09;;;;;;;272.90;259.27;;;30.20;98.40;;;;;;5032660;28;20475;-80
2023/08/22 09:26:38;;;;;;;287.33;273.43;;;30.00;98.40;;;;;;5033933;28;20033;-79
2023/08/22 09:29:05;;;;;;;323.33;307.08;;;30.00;98.40;;;;;;5015657;28;20044;-78
2023/08/22 09:31:32;;;;;;;267.33;254.43;;;30.30;98.70;;;;;;5033295;28;20037;-79
2023/08/22 09:33:58;;;;;;;300.98;286.23;;;30.20;97.90;;;;;;5032283;28;20044;-79
2023/08/22 09:36:24;;;;;;;300.95;286.33;;;29.90;98.30;;;;;;5033475;28;20045;-79
2023/08/22 09:38:55;;;;;;;301.55;286.45;;;29.70;98.50;;;;;;5033498;28;20159;-78
2023/08/22 09:41:23;;;;;;;294.90;280.33;;;29.70;98.60;;;;;;5033656;28;20689;-80
2023/08/22 09:43:51;;;;;;;288.67;274.27;;;29.80;98.40;;;;;;5034032;28;20499;-79
2023/08/22 09:46:17;;;;;;;306.75;291.83;;;29.90;98.40;;;;;;5032827;28;20390;-80
2023/08/22 09:48:44;;;;;;;293.77;279.23;;;29.90;98.50;;;;;;5032588;28;20033;-80
2023/08/22 09:51:10;;;;;;;290.38;275.98;;;29.90;98.30;;;;;;5032070;28;20030;-79
2023/08/22 09:53:36;;;;;;;293.30;278.88;;;30.10;98.30;;;;;;5031921;28;20053;-79
2023/08/22 09:56:02;;;;;;;289.63;275.45;;;30.30;97.90;;;;;;5032015;28;20025;-78
2023/08/22 09:58:29;;;;;;;283.45;269.50;;;30.30;98.00;;;;;;5032924;28;20037;-79
2023/08/22 10:00:56;;;;;;;280.05;266.30;;;30.30;98.10;;;;;;5031091;28;20391;-79
2023/08/22 10:03:22;;;;;;;287.23;273.20;;;30.40;97.90;;;;;;5031430;28;20049;-77
2023/08/22 10:05:50;;;;;;;279.60;265.98;;;30.40;98.00;;;;;;5031670;28;20652;-79
2023/08/22 10:08:16;;;;;;;288.00;273.73;;;30.40;98.00;;;;;;5031361;28;20080;-79
2023/08/22 10:10:42;;;;;;;281.42;267.63;;;30.50;98.20;;;;;;5032980;28;20029;-79
2023/08/22 10:13:09;;;;;;;255.85;243.43;;;30.60;97.80;;;;;;5030754;28;20494;-80
2023/08/22 10:15:35;;;;;;;308.52;292.95;;;30.60;98.00;;;;;;5031289;28;20402;-79
2023/08/22 10:18:02;;;;;;;300.25;285.40;;;30.90;97.80;;;;;;5032024;28;20041;-79
2023/08/22 10:20:28;;;;;;;231.75;220.48;;;31.00;97.60;;;;;;5030813;28;20041;-79
2023/08/22 10:22:54;;;;;;;192.77;183.57;;;31.20;97.80;;;;;;5032640;28;20049;-79
2023/08/22 10:25:20;;;;;;;179.43;170.63;;;31.40;97.60;;;;;;5032714;28;20037;-79
2023/08/22 10:27:47;;;;;;;175.27;166.48;;;31.50;96.70;;;;;;5031147;28;20100;-80
2023/08/22 10:30:13;;;;;;;208.32;198.25;;;31.70;96.50;;;;;;5032330;28;20033;-79
2023/08/22 10:32:40;;;;;;;193.05;183.43;;;31.70;96.70;;;;;;5032779;28;20471;-78
2023/08/22 10:35:21;;;;;;;164.50;156.35;;;31.70;96.70;;;;;;5032959;28;20037;-80
2023/08/22 10:37:48;;;;;;;188.52;179.43;;;31.50;96.50;;;;;;5013109;28;20046;-78
2023/08/22 10:40:40;;;;;;;191.00;181.75;;;31.60;96.60;;;;;;5013143;28;20030;-80
2023/08/22 10:43:11;;;;;;;194.30;184.52;;;31.50;96.90;;;;;;5012227;28;20064;-79
2023/08/22 10:45:38;;;;;;;213.25;203.02;;;31.70;96.90;;;;;;5032219;28;20025;-80
2023/08/22 10:48:11;;;;;;;218.05;207.50;;;31.90;96.60;;;;;;5033244;28;20064;-81
2023/08/22 10:50:42;;;;;;;203.75;193.88;;;31.90;96.40;;;;;;5032050;28;20026;-79
2023/08/22 10:53:26;;;;;;;227.90;216.68;;;31.90;96.90;;;;;;5032828;28;20048;-80
2023/08/22 10:55:53;;;;;;;212.07;201.82;;;32.10;96.30;;;;;;5032159;28;20032;-79
2023/08/22 10:58:41;;;;;;;250.48;238.23;;;32.00;96.90;;;;;;5032435;28;20025;-79
2023/08/22 11:01:14;;;;;;;277.30;263.65;;;32.10;96.80;;;;;;5031956;28;20072;-79
2023/08/22 11:03:41;;;;;;;305.88;290.30;;;32.20;96.30;;;;;;5032329;28;20048;-79
2023/08/22 11:06:15;;;;;;;312.42;296.85;;;32.20;96.20;;;;;;5031595;28;20390;-77
2023/08/22 11:08:42;;;;;;;310.42;294.77;;;32.40;95.90;;;;;;5032294;28;20049;-78
2023/08/22 11:11:10;;;;;;;336.98;319.58;;;32.40;95.80;;;;;;5030905;28;20051;-80
2023/08/22 11:13:37;;;;;;;323.58;307.10;;;32.20;96.00;;;;;;5032188;28;20367;-78
2023/08/22 11:16:08;;;;;;;324.00;307.48;;;32.40;96.50;;;;;;5032025;28;20040;-77
2023/08/22 11:18:34;;;;;;;333.50;316.63;;;32.40;96.00;;;;;;5032458;28;20037;-79
2023/08/22 11:21:01;;;;;;;331.15;314.20;;;32.50;95.80;;;;;;5030439;28;20029;-79
2023/08/22 11:23:31;;;;;;;373.05;353.90;;;32.30;95.60;;;;;;5032356;28;20057;-79
2023/08/22 11:25:57;;;;;;;360.23;341.67;;;32.50;96.10;;;;;;5036009;28;20335;-79
2023/08/22 11:28:30;;;;;;;311.33;295.85;;;32.60;96.30;;;;;;5036325;28;20030;-79
2023/08/22 11:30:56;;;;;;;319.40;303.52;;;32.50;95.80;;;;;;5035527;28;20041;-79
2023/08/22 11:33:23;;;;;;;304.15;288.95;;;32.50;96.00;;;;;;5036420;28;20021;-78
2023/08/22 11:35:50;;;;;;;306.08;290.83;;;32.50;96.00;;;;;;5035606;28;20042;-79
2023/08/22 11:38:16;;;;;;;328.33;311.95;;;32.50;95.90;;;;;;5034684;28;20049;-79
2023/08/22 11:40:42;;;;;;;402.42;381.42;;;32.50;96.10;;;;;;5034780;28;20029;-79
2023/08/22 11:43:13;;;;;;;283.40;269.60;;;32.60;96.70;;;;;;5033841;28;20037;-79
2023/08/22 11:45:46;;;;;;;268.02;255.20;;;32.70;95.80;;;;;;5034059;28;20029;-80
2023/08/22 11:48:16;;;;;;;251.98;239.82;;;32.80;95.90;;;;;;5034826;28;20052;-79
2023/08/22 11:50:43;;;;;;;264.00;251.25;;;33.00;95.50;;;;;;5035268;28;20038;-79
2023/08/22 11:53:11;;;;;;;245.30;233.10;;;32.90;95.60;;;;;;5035521;28;20049;-79
2023/08/22 11:55:40;;;;;;;256.75;244.18;;;33.00;95.40;;;;;;5035525;28;20013;-78
2023/08/22 11:58:09;;;;;;;260.05;247.27;;;32.90;95.40;;;;;;5035596;28;20033;-79
2023/08/22 12:00:35;;;;;;;335.45;318.75;;;32.50;95.90;;;;;;5033579;28;20040;-79
2023/08/22 12:03:05;;;;;;;316.05;300.60;;;32.10;96.20;;;;;;5035197;28;20418;-79
2023/08/22 12:05:38;;;;;;;383.25;363.30;;;32.20;96.10;;;;;;5035318;28;20044;-79
2023/08/22 12:08:10;;;;;;;250.63;238.60;;;32.50;96.80;;;;;;5035527;28;20029;-80